sensor_id;sensor_type;location;lat;lon;timestamp;temperature;humidity
67769;DHT22;54569;52.018;5.584;2023-04-19T00:00:40;10.90;63.40
67769;DHT22;54569;52.018;5.584;2023-04-19T00:03:06;10.90;63.50
67769;DHT22;54569;52.018;5.584;2023-04-19T00:05:31;10.90;63.50
67769;DHT22;54569;52.018;5.584;2023-04-19T00:07:58;11.00;63.70
67769;DHT22;54569;52.018;5.584;2023-04-19T00:10:24;11.00;63.70
67769;DHT22;54569;52.018;5.584;2023-04-19T00:12:50;11.00;63.80
67769;DHT22;54569;52.018;5.584;2023-04-19T00:15:16;11.00;63.70
67769;DHT22;54569;52.018;5.584;2023-04-19T00:17:42;11.00;63.70
67769;DHT22;54569;52.018;5.584;2023-04-19T00:20:08;11.00;63.80
67769;DHT22;54569;52.018;5.584;2023-04-19T00:22:34;11.00;63.80
67769;DHT22;54569;52.018;5.584;2023-04-19T00:25:00;11.10;63.80
67769;DHT22;54569;52.018;5.584;2023-04-19T00:27:26;11.10;63.90
67769;DHT22;54569;52.018;5.584;2023-04-19T00:29:52;11.10;63.80
67769;DHT22;54569;52.018;5.584;2023-04-19T00:32:18;11.10;63.90
67769;DHT22;54569;52.018;5.584;2023-04-19T00:34:43;11.10;63.90
67769;DHT22;54569;52.018;5.584;2023-04-19T00:37:09;11.10;64.10
67769;DHT22;54569;52.018;5.584;2023-04-19T00:39:36;11.10;64.10
67769;DHT22;54569;52.018;5.584;2023-04-19T00:42:04;11.00;64.20
67769;DHT22;54569;52.018;5.584;2023-04-19T00:44:29;11.00;64.30
67769;DHT22;54569;52.018;5.584;2023-04-19T00:46:55;11.00;64.40
67769;DHT22;54569;52.018;5.584;2023-04-19T00:49:22;11.00;64.40
67769;DHT22;54569;52.018;5.584;2023-04-19T00:51:49;11.00;64.50
67769;DHT22;54569;52.018;5.584;2023-04-19T00:54:16;10.90;64.60
67769;DHT22;54569;52.018;5.584;2023-04-19T00:56:44;10.90;64.80
67769;DHT22;54569;52.018;5.584;2023-04-19T00:59:11;10.90;64.90
67769;DHT22;54569;52.018;5.584;2023-04-19T01:01:37;10.80;64.80
67769;DHT22;54569;52.018;5.584;2023-04-19T01:04:04;10.80;64.90
67769;DHT22;54569;52.018;5.584;2023-04-19T01:06:30;10.80;65.10
67769;DHT22;54569;52.018;5.584;2023-04-19T01:08:56;10.80;65.20
67769;DHT22;54569;52.018;5.584;2023-04-19T01:11:22;10.80;65.20
67769;DHT22;54569;52.018;5.584;2023-04-19T01:13:49;10.70;65.30
67769;DHT22;54569;52.018;5.584;2023-04-19T01:16:17;10.60;65.30
67769;DHT22;54569;52.018;5.584;2023-04-19T01:18:44;10.60;65.50
67769;DHT22;54569;52.018;5.584;2023-04-19T01:21:10;10.60;65.50
67769;DHT22;54569;52.018;5.584;2023-04-19T01:23:36;10.60;65.90
67769;DHT22;54569;52.018;5.584;2023-04-19T01:26:04;10.50;65.90
67769;DHT22;54569;52.018;5.584;2023-04-19T01:28:30;10.50;65.80
67769;DHT22;54569;52.018;5.584;2023-04-19T01:30:56;10.50;66.00
67769;DHT22;54569;52.018;5.584;2023-04-19T01:33:25;10.50;66.00
67769;DHT22;54569;52.018;5.584;2023-04-19T01:35:50;10.40;66.00
67769;DHT22;54569;52.018;5.584;2023-04-19T01:38:16;10.40;66.20
67769;DHT22;54569;52.018;5.584;2023-04-19T01:40:42;10.40;66.20
67769;DHT22;54569;52.018;5.584;2023-04-19T01:43:14;10.30;66.40
67769;DHT22;54569;52.018;5.584;2023-04-19T01:45:40;10.30;66.40
67769;DHT22;54569;52.018;5.584;2023-04-19T01:48:06;10.40;66.40
67769;DHT22;54569;52.018;5.584;2023-04-19T01:50:33;10.40;66.50
67769;DHT22;54569;52.018;5.584;2023-04-19T01:52:59;10.30;66.50
67769;DHT22;54569;52.018;5.584;2023-04-19T01:55:25;10.40;66.70
67769;DHT22;54569;52.018;5.584;2023-04-19T01:57:51;10.40;66.50
67769;DHT22;54569;52.018;5.584;2023-04-19T02:00:19;10.40;66.50
67769;DHT22;54569;52.018;5.584;2023-04-19T02:02:46;10.40;66.50
67769;DHT22;54569;52.018;5.584;2023-04-19T02:05:12;10.40;66.50
67769;DHT22;54569;52.018;5.584;2023-04-19T02:07:38;10.40;66.60
67769;DHT22;54569;52.018;5.584;2023-04-19T02:10:04;10.40;66.70
67769;DHT22;54569;52.018;5.584;2023-04-19T02:12:31;10.40;66.70
67769;DHT22;54569;52.018;5.584;2023-04-19T02:14:58;10.40;66.80
67769;DHT22;54569;52.018;5.584;2023-04-19T02:17:29;10.40;66.70
67769;DHT22;54569;52.018;5.584;2023-04-19T02:19:55;10.40;66.80
67769;DHT22;54569;52.018;5.584;2023-04-19T02:22:21;10.40;66.80
67769;DHT22;54569;52.018;5.584;2023-04-19T02:24:48;10.40;66.80
67769;DHT22;54569;52.018;5.584;2023-04-19T02:27:14;10.40;66.90
67769;DHT22;54569;52.018;5.584;2023-04-19T02:29:40;10.40;66.90
67769;DHT22;54569;52.018;5.584;2023-04-19T02:32:05;10.40;66.90
67769;DHT22;54569;52.018;5.584;2023-04-19T02:34:32;10.40;67.00
67769;DHT22;54569;52.018;5.584;2023-04-19T02:36:58;10.40;67.10
67769;DHT22;54569;52.018;5.584;2023-04-19T02:39:27;10.30;67.00
67769;DHT22;54569;52.018;5.584;2023-04-19T02:41:53;10.30;67.10
67769;DHT22;54569;52.018;5.584;2023-04-19T02:44:18;10.20;67.30
67769;DHT22;54569;52.018;5.584;2023-04-19T02:46:48;10.20;67.40
67769;DHT22;54569;52.018;5.584;2023-04-19T02:49:14;10.10;67.50
67769;DHT22;54569;52.018;5.584;2023-04-19T02:51:40;10.10;67.60
67769;DHT22;54569;52.018;5.584;2023-04-19T02:54:06;10.10;67.60
67769;DHT22;54569;52.018;5.584;2023-04-19T02:56:31;10.10;67.80
67769;DHT22;54569;52.018;5.584;2023-04-19T02:59:01;10.10;67.70
67769;DHT22;54569;52.018;5.584;2023-04-19T03:01:28;10.10;67.60
67769;DHT22;54569;52.018;5.584;2023-04-19T03:03:55;10.20;67.70
67769;DHT22;54569;52.018;5.584;2023-04-19T03:06:21;10.20;67.50
67769;DHT22;54569;52.018;5.584;2023-04-19T03:08:46;10.20;67.50
67769;DHT22;54569;52.018;5.584;2023-04-19T03:11:15;10.20;67.40
67769;DHT22;54569;52.018;5.584;2023-04-19T03:13:41;10.30;67.50
67769;DHT22;54569;52.018;5.584;2023-04-19T03:16:08;10.30;67.50
67769;DHT22;54569;52.018;5.584;2023-04-19T03:18:35;10.30;67.40
67769;DHT22;54569;52.018;5.584;2023-04-19T03:21:03;10.30;67.40
67769;DHT22;54569;52.018;5.584;2023-04-19T03:23:35;10.30;67.60
67769;DHT22;54569;52.018;5.584;2023-04-19T03:26:01;10.30;67.50
67769;DHT22;54569;52.018;5.584;2023-04-19T03:28:36;10.30;67.40
67769;DHT22;54569;52.018;5.584;2023-04-19T03:31:14;10.40;67.50
67769;DHT22;54569;52.018;5.584;2023-04-19T03:33:40;10.40;67.70
67769;DHT22;54569;52.018;5.584;2023-04-19T03:36:06;10.40;67.30
67769;DHT22;54569;52.018;5.584;2023-04-19T03:38:32;10.40;67.20
67769;DHT22;54569;52.018;5.584;2023-04-19T03:40:59;10.40;67.20
67769;DHT22;54569;52.018;5.584;2023-04-19T03:43:28;10.40;67.20
67769;DHT22;54569;52.018;5.584;2023-04-19T03:45:54;10.40;67.90
67769;DHT22;54569;52.018;5.584;2023-04-19T03:48:20;10.40;67.20
67769;DHT22;54569;52.018;5.584;2023-04-19T03:50:46;10.50;67.10
67769;DHT22;54569;52.018;5.584;2023-04-19T03:53:15;10.50;67.00
67769;DHT22;54569;52.018;5.584;2023-04-19T03:55:40;10.50;67.10
67769;DHT22;54569;52.018;5.584;2023-04-19T03:58:06;10.50;67.10
67769;DHT22;54569;52.018;5.584;2023-04-19T04:00:39;10.50;67.10
67769;DHT22;54569;52.018;5.584;2023-04-19T04:03:05;10.50;67.00
67769;DHT22;54569;52.018;5.584;2023-04-19T04:05:31;10.40;67.00
67769;DHT22;54569;52.018;5.584;2023-04-19T04:07:59;10.40;67.00
67769;DHT22;54569;52.018;5.584;2023-04-19T04:10:25;10.30;67.00
67769;DHT22;54569;52.018;5.584;2023-04-19T04:12:50;10.30;67.20
67769;DHT22;54569;52.018;5.584;2023-04-19T04:15:23;10.20;67.30
67769;DHT22;54569;52.018;5.584;2023-04-19T04:17:51;10.20;67.40
67769;DHT22;54569;52.018;5.584;2023-04-19T04:20:19;10.10;67.40
67769;DHT22;54569;52.018;5.584;2023-04-19T04:22:46;10.00;67.40
67769;DHT22;54569;52.018;5.584;2023-04-19T04:25:14;10.00;67.50
67769;DHT22;54569;52.018;5.584;2023-04-19T04:27:42;10.00;67.60
67769;DHT22;54569;52.018;5.584;2023-04-19T04:30:15;9.90;67.60
67769;DHT22;54569;52.018;5.584;2023-04-19T04:32:42;9.90;68.40
67769;DHT22;54569;52.018;5.584;2023-04-19T04:35:13;9.80;67.70
67769;DHT22;54569;52.018;5.584;2023-04-19T04:37:45;9.80;67.80
67769;DHT22;54569;52.018;5.584;2023-04-19T04:40:11;9.70;67.80
67769;DHT22;54569;52.018;5.584;2023-04-19T04:42:37;9.70;67.70
67769;DHT22;54569;52.018;5.584;2023-04-19T04:45:03;9.70;67.80
67769;DHT22;54569;52.018;5.584;2023-04-19T04:47:31;9.60;67.80
67769;DHT22;54569;52.018;5.584;2023-04-19T04:50:01;9.60;67.80
67769;DHT22;54569;52.018;5.584;2023-04-19T04:52:28;9.60;67.90
67769;DHT22;54569;52.018;5.584;2023-04-19T04:55:03;9.60;67.70
67769;DHT22;54569;52.018;5.584;2023-04-19T04:57:33;9.60;67.80
67769;DHT22;54569;52.018;5.584;2023-04-19T05:00:00;9.60;67.80
67769;DHT22;54569;52.018;5.584;2023-04-19T05:02:33;9.60;67.80
67769;DHT22;54569;52.018;5.584;2023-04-19T05:04:58;9.60;67.80
67769;DHT22;54569;52.018;5.584;2023-04-19T05:07:25;9.50;67.70
67769;DHT22;54569;52.018;5.584;2023-04-19T05:09:51;9.60;67.80
67769;DHT22;54569;52.018;5.584;2023-04-19T05:12:22;9.50;67.70
67769;DHT22;54569;52.018;5.584;2023-04-19T05:14:48;9.50;67.70
67769;DHT22;54569;52.018;5.584;2023-04-19T05:17:13;9.50;67.80
67769;DHT22;54569;52.018;5.584;2023-04-19T05:19:39;9.50;67.70
67769;DHT22;54569;52.018;5.584;2023-04-19T05:22:06;9.50;67.70
67769;DHT22;54569;52.018;5.584;2023-04-19T05:24:32;9.50;68.30
67769;DHT22;54569;52.018;5.584;2023-04-19T05:26:58;9.50;67.60
67769;DHT22;54569;52.018;5.584;2023-04-19T05:29:24;9.50;67.60
67769;DHT22;54569;52.018;5.584;2023-04-19T05:31:53;9.50;67.60
67769;DHT22;54569;52.018;5.584;2023-04-19T05:34:25;9.50;68.00
67769;DHT22;54569;52.018;5.584;2023-04-19T05:36:53;9.60;67.50
67769;DHT22;54569;52.018;5.584;2023-04-19T05:39:19;9.50;67.40
67769;DHT22;54569;52.018;5.584;2023-04-19T05:41:45;9.60;67.20
67769;DHT22;54569;52.018;5.584;2023-04-19T05:44:11;9.60;67.10
67769;DHT22;54569;52.018;5.584;2023-04-19T05:46:36;9.60;67.10
67769;DHT22;54569;52.018;5.584;2023-04-19T05:49:03;9.60;66.80
67769;DHT22;54569;52.018;5.584;2023-04-19T05:51:28;9.70;66.60
67769;DHT22;54569;52.018;5.584;2023-04-19T05:54:03;9.70;66.40
67769;DHT22;54569;52.018;5.584;2023-04-19T05:56:29;9.80;66.00
67769;DHT22;54569;52.018;5.584;2023-04-19T05:58:55;9.80;65.60
67769;DHT22;54569;52.018;5.584;2023-04-19T06:01:22;9.90;65.30
67769;DHT22;54569;52.018;5.584;2023-04-19T06:03:47;9.90;65.00
67769;DHT22;54569;52.018;5.584;2023-04-19T06:06:18;10.00;64.80
67769;DHT22;54569;52.018;5.584;2023-04-19T06:08:43;10.00;64.50
67769;DHT22;54569;52.018;5.584;2023-04-19T06:11:09;10.10;64.30
67769;DHT22;54569;52.018;5.584;2023-04-19T06:13:35;10.10;64.10
67769;DHT22;54569;52.018;5.584;2023-04-19T06:16:02;10.20;63.60
67769;DHT22;54569;52.018;5.584;2023-04-19T06:18:28;10.30;63.50
67769;DHT22;54569;52.018;5.584;2023-04-19T06:20:53;10.40;63.00
67769;DHT22;54569;52.018;5.584;2023-04-19T06:23:19;10.40;62.60
67769;DHT22;54569;52.018;5.584;2023-04-19T06:25:45;10.40;62.40
67769;DHT22;54569;52.018;5.584;2023-04-19T06:28:13;10.40;62.20
67769;DHT22;54569;52.018;5.584;2023-04-19T06:30:39;10.50;62.10
67769;DHT22;54569;52.018;5.584;2023-04-19T06:33:04;10.50;62.00
67769;DHT22;54569;52.018;5.584;2023-04-19T06:35:31;10.60;61.90
67769;DHT22;54569;52.018;5.584;2023-04-19T06:37:57;10.70;61.60
67769;DHT22;54569;52.018;5.584;2023-04-19T06:40:23;10.80;61.10
67769;DHT22;54569;52.018;5.584;2023-04-19T06:42:48;10.80;60.70
67769;DHT22;54569;52.018;5.584;2023-04-19T06:45:14;10.90;60.30
67769;DHT22;54569;52.018;5.584;2023-04-19T06:47:40;11.00;60.20
67769;DHT22;54569;52.018;5.584;2023-04-19T06:50:07;11.10;60.40
67769;DHT22;54569;52.018;5.584;2023-04-19T06:52:32;11.10;59.70
67769;DHT22;54569;52.018;5.584;2023-04-19T06:54:58;11.20;59.40
67769;DHT22;54569;52.018;5.584;2023-04-19T06:57:24;11.30;59.10
67769;DHT22;54569;52.018;5.584;2023-04-19T06:59:49;11.30;59.30
67769;DHT22;54569;52.018;5.584;2023-04-19T07:02:15;11.40;58.50
67769;DHT22;54569;52.018;5.584;2023-04-19T07:04:41;11.50;58.60
67769;DHT22;54569;52.018;5.584;2023-04-19T07:07:06;11.60;58.30
67769;DHT22;54569;52.018;5.584;2023-04-19T07:09:32;11.70;57.80
67769;DHT22;54569;52.018;5.584;2023-04-19T07:11:58;11.70;57.00
67769;DHT22;54569;52.018;5.584;2023-04-19T07:14:23;11.80;57.30
67769;DHT22;54569;52.018;5.584;2023-04-19T07:16:49;11.80;56.70
67769;DHT22;54569;52.018;5.584;2023-04-19T07:19:15;11.80;56.60
67769;DHT22;54569;52.018;5.584;2023-04-19T07:21:43;11.90;56.40
67769;DHT22;54569;52.018;5.584;2023-04-19T07:24:09;11.90;55.90
67769;DHT22;54569;52.018;5.584;2023-04-19T07:26:35;11.90;56.10
67769;DHT22;54569;52.018;5.584;2023-04-19T07:29:00;12.00;56.10
67769;DHT22;54569;52.018;5.584;2023-04-19T07:31:27;12.00;56.10
67769;DHT22;54569;52.018;5.584;2023-04-19T07:33:53;12.10;55.80
67769;DHT22;54569;52.018;5.584;2023-04-19T07:36:19;12.20;55.90
67769;DHT22;54569;52.018;5.584;2023-04-19T07:38:46;12.20;55.40
67769;DHT22;54569;52.018;5.584;2023-04-19T07:41:11;12.20;55.40
67769;DHT22;54569;52.018;5.584;2023-04-19T07:43:37;12.30;55.00
67769;DHT22;54569;52.018;5.584;2023-04-19T07:46:13;12.30;55.20
67769;DHT22;54569;52.018;5.584;2023-04-19T07:48:42;12.30;54.00
67769;DHT22;54569;52.018;5.584;2023-04-19T07:51:13;12.30;54.70
67769;DHT22;54569;52.018;5.584;2023-04-19T07:53:41;12.40;54.70
67769;DHT22;54569;52.018;5.584;2023-04-19T07:56:08;12.50;54.80
67769;DHT22;54569;52.018;5.584;2023-04-19T07:58:35;12.50;54.60
67769;DHT22;54569;52.018;5.584;2023-04-19T08:01:01;12.60;54.40
67769;DHT22;54569;52.018;5.584;2023-04-19T08:03:26;12.70;54.10
67769;DHT22;54569;52.018;5.584;2023-04-19T08:05:52;12.80;54.30
67769;DHT22;54569;52.018;5.584;2023-04-19T08:08:18;13.00;53.70
67769;DHT22;54569;52.018;5.584;2023-04-19T08:10:44;13.10;53.80
67769;DHT22;54569;52.018;5.584;2023-04-19T08:13:10;13.20;53.40
67769;DHT22;54569;52.018;5.584;2023-04-19T08:15:36;13.30;53.50
67769;DHT22;54569;52.018;5.584;2023-04-19T08:18:02;13.40;53.10
67769;DHT22;54569;52.018;5.584;2023-04-19T08:20:30;13.50;53.10
67769;DHT22;54569;52.018;5.584;2023-04-19T08:22:56;13.70;52.70
67769;DHT22;54569;52.018;5.584;2023-04-19T08:25:22;13.80;53.00
67769;DHT22;54569;52.018;5.584;2023-04-19T08:27:51;13.90;52.70
67769;DHT22;54569;52.018;5.584;2023-04-19T08:30:17;14.10;52.50
67769;DHT22;54569;52.018;5.584;2023-04-19T08:32:43;14.30;52.60
67769;DHT22;54569;52.018;5.584;2023-04-19T08:35:08;14.30;53.30
67769;DHT22;54569;52.018;5.584;2023-04-19T08:37:34;14.40;52.50
67769;DHT22;54569;52.018;5.584;2023-04-19T08:40:00;14.60;52.70
67769;DHT22;54569;52.018;5.584;2023-04-19T08:42:26;14.80;52.60
67769;DHT22;54569;52.018;5.584;2023-04-19T08:44:52;15.00;52.80
67769;DHT22;54569;52.018;5.584;2023-04-19T08:47:19;15.20;52.70
67769;DHT22;54569;52.018;5.584;2023-04-19T08:49:47;15.30;53.00
67769;DHT22;54569;52.018;5.584;2023-04-19T08:52:13;15.70;66.00
67769;DHT22;54569;52.018;5.584;2023-04-19T08:54:40;15.90;60.90
67769;DHT22;54569;52.018;5.584;2023-04-19T08:57:07;15.90;62.30
67769;DHT22;54569;52.018;5.584;2023-04-19T08:59:33;16.20;65.90
67769;DHT22;54569;52.018;5.584;2023-04-19T09:02:00;16.10;60.80
67769;DHT22;54569;52.018;5.584;2023-04-19T09:04:26;16.50;62.60
67769;DHT22;54569;52.018;5.584;2023-04-19T09:06:53;16.60;52.70
67769;DHT22;54569;52.018;5.584;2023-04-19T09:09:19;17.10;64.40
67769;DHT22;54569;52.018;5.584;2023-04-19T09:11:46;17.10;61.50
67769;DHT22;54569;52.018;5.584;2023-04-19T09:14:13;17.20;61.10
67769;DHT22;54569;52.018;5.584;2023-04-19T09:16:39;17.40;55.20
67769;DHT22;54569;52.018;5.584;2023-04-19T09:19:05;17.70;64.00
67769;DHT22;54569;52.018;5.584;2023-04-19T09:21:33;17.60;64.00
67769;DHT22;54569;52.018;5.584;2023-04-19T09:23:59;17.90;64.50
67769;DHT22;54569;52.018;5.584;2023-04-19T09:26:26;18.00;65.90
67769;DHT22;54569;52.018;5.584;2023-04-19T09:29:06;18.00;65.20
67769;DHT22;54569;52.018;5.584;2023-04-19T09:31:34;18.40;58.20
67769;DHT22;54569;52.018;5.584;2023-04-19T09:34:16;18.50;61.00
67769;DHT22;54569;52.018;5.584;2023-04-19T09:36:42;18.80;61.80
67769;DHT22;54569;52.018;5.584;2023-04-19T09:39:08;19.10;61.90
67769;DHT22;54569;52.018;5.584;2023-04-19T09:41:34;19.10;62.40
67769;DHT22;54569;52.018;5.584;2023-04-19T09:44:09;19.50;60.10
67769;DHT22;54569;52.018;5.584;2023-04-19T09:46:36;19.50;47.20
67769;DHT22;54569;52.018;5.584;2023-04-19T09:49:15;19.90;62.20
67769;DHT22;54569;52.018;5.584;2023-04-19T09:51:46;20.70;58.50
67769;DHT22;54569;52.018;5.584;2023-04-19T09:54:13;21.30;61.60
67769;DHT22;54569;52.018;5.584;2023-04-19T09:56:40;21.90;60.70
67769;DHT22;54569;52.018;5.584;2023-04-19T09:59:07;23.10;66.50
67769;DHT22;54569;52.018;5.584;2023-04-19T10:01:45;24.20;44.70
67769;DHT22;54569;52.018;5.584;2023-04-19T10:04:13;26.10;40.50
67769;DHT22;54569;52.018;5.584;2023-04-19T10:06:39;27.80;38.80
67769;DHT22;54569;52.018;5.584;2023-04-19T10:09:07;29.30;36.10
67769;DHT22;54569;52.018;5.584;2023-04-19T10:11:39;31.50;32.40
67769;DHT22;54569;52.018;5.584;2023-04-19T10:14:07;31.40;32.30
67769;DHT22;54569;52.018;5.584;2023-04-19T10:16:35;32.40;32.50
67769;DHT22;54569;52.018;5.584;2023-04-19T10:19:21;33.30;31.60
67769;DHT22;54569;52.018;5.584;2023-04-19T10:21:48;33.20;29.90
67769;DHT22;54569;52.018;5.584;2023-04-19T10:24:15;33.80;41.00
67769;DHT22;54569;52.018;5.584;2023-04-19T10:27:11;34.50;30.70
67769;DHT22;54569;52.018;5.584;2023-04-19T10:32:29;35.30;48.10
67769;DHT22;54569;52.018;5.584;2023-04-19T10:35:00;35.20;55.80
67769;DHT22;54569;52.018;5.584;2023-04-19T10:37:27;35.70;44.30
67769;DHT22;54569;52.018;5.584;2023-04-19T10:39:52;36.10;52.10
67769;DHT22;54569;52.018;5.584;2023-04-19T10:42:18;36.20;47.80
67769;DHT22;54569;52.018;5.584;2023-04-19T10:47:47;36.90;24.90
67769;DHT22;54569;52.018;5.584;2023-04-19T10:50:16;37.00;29.10
67769;DHT22;54569;52.018;5.584;2023-04-19T10:52:42;36.50;29.10
67769;DHT22;54569;52.018;5.584;2023-04-19T10:55:08;36.70;42.50
67769;DHT22;54569;52.018;5.584;2023-04-19T10:58:05;36.90;29.20
67769;DHT22;54569;52.018;5.584;2023-04-19T11:00:31;37.00;24.70
67769;DHT22;54569;52.018;5.584;2023-04-19T11:06:15;37.20;21.60
67769;DHT22;54569;52.018;5.584;2023-04-19T11:08:43;36.80;26.10
67769;DHT22;54569;52.018;5.584;2023-04-19T11:11:09;36.50;28.80
67769;DHT22;54569;52.018;5.584;2023-04-19T11:13:36;36.00;46.60
67769;DHT22;54569;52.018;5.584;2023-04-19T11:16:09;36.30;29.50
67769;DHT22;54569;52.018;5.584;2023-04-19T11:18:35;36.40;27.90
67769;DHT22;54569;52.018;5.584;2023-04-19T11:21:00;35.90;29.30
67769;DHT22;54569;52.018;5.584;2023-04-19T11:23:26;35.40;29.50
67769;DHT22;54569;52.018;5.584;2023-04-19T11:25:52;35.00;29.20
67769;DHT22;54569;52.018;5.584;2023-04-19T11:28:18;34.70;29.40
67769;DHT22;54569;52.018;5.584;2023-04-19T11:30:46;34.50;29.20
67769;DHT22;54569;52.018;5.584;2023-04-19T11:33:12;34.20;29.30
67769;DHT22;54569;52.018;5.584;2023-04-19T11:35:38;34.30;29.20
67769;DHT22;54569;52.018;5.584;2023-04-19T11:38:04;34.40;28.70
67769;DHT22;54569;52.018;5.584;2023-04-19T11:40:30;34.30;28.40
67769;DHT22;54569;52.018;5.584;2023-04-19T11:43:02;33.90;28.40
67769;DHT22;54569;52.018;5.584;2023-04-19T11:45:30;34.20;27.00
67769;DHT22;54569;52.018;5.584;2023-04-19T11:47:56;34.50;27.80
67769;DHT22;54569;52.018;5.584;2023-04-19T11:50:42;34.60;27.60
67769;DHT22;54569;52.018;5.584;2023-04-19T11:53:22;34.80;24.50
67769;DHT22;54569;52.018;5.584;2023-04-19T11:55:53;35.20;24.60
67769;DHT22;54569;52.018;5.584;2023-04-19T11:58:42;35.40;26.40
67769;DHT22;54569;52.018;5.584;2023-04-19T12:01:15;35.50;25.10
67769;DHT22;54569;52.018;5.584;2023-04-19T12:03:45;35.50;26.80
67769;DHT22;54569;52.018;5.584;2023-04-19T12:06:25;35.20;26.20
67769;DHT22;54569;52.018;5.584;2023-04-19T12:08:53;34.40;25.90
67769;DHT22;54569;52.018;5.584;2023-04-19T12:11:21;32.80;39.20
67769;DHT22;54569;52.018;5.584;2023-04-19T12:14:07;33.00;27.20
67769;DHT22;54569;52.018;5.584;2023-04-19T12:16:33;31.10;28.20
67769;DHT22;54569;52.018;5.584;2023-04-19T12:19:18;28.90;29.40
67769;DHT22;54569;52.018;5.584;2023-04-19T12:21:45;25.90;22.30
67769;DHT22;54569;52.018;5.584;2023-04-19T12:24:14;25.30;31.10
67769;DHT22;54569;52.018;5.584;2023-04-19T12:26:56;24.30;32.00
67769;DHT22;54569;52.018;5.584;2023-04-19T12:29:21;23.40;28.90
67769;DHT22;54569;52.018;5.584;2023-04-19T12:31:47;22.60;33.20
67769;DHT22;54569;52.018;5.584;2023-04-19T12:34:13;22.10;33.70
67769;DHT22;54569;52.018;5.584;2023-04-19T12:36:38;21.70;33.80
67769;DHT22;54569;52.018;5.584;2023-04-19T12:39:04;21.30;33.90
67769;DHT22;54569;52.018;5.584;2023-04-19T12:41:30;21.00;33.90
67769;DHT22;54569;52.018;5.584;2023-04-19T12:43:55;20.90;33.90
67769;DHT22;54569;52.018;5.584;2023-04-19T12:46:21;20.60;33.70
67769;DHT22;54569;52.018;5.584;2023-04-19T12:48:47;20.40;33.80
67769;DHT22;54569;52.018;5.584;2023-04-19T12:51:12;20.10;33.40
67769;DHT22;54569;52.018;5.584;2023-04-19T12:53:40;19.90;33.50
67769;DHT22;54569;52.018;5.584;2023-04-19T12:56:05;19.70;33.50
67769;DHT22;54569;52.018;5.584;2023-04-19T12:58:31;19.50;33.60
67769;DHT22;54569;52.018;5.584;2023-04-19T13:00:57;19.20;34.00
67769;DHT22;54569;52.018;5.584;2023-04-19T13:03:23;19.00;33.90
67769;DHT22;54569;52.018;5.584;2023-04-19T13:05:49;18.80;33.70
67769;DHT22;54569;52.018;5.584;2023-04-19T13:08:14;18.70;33.60
67769;DHT22;54569;52.018;5.584;2023-04-19T13:10:41;18.70;33.90
67769;DHT22;54569;52.018;5.584;2023-04-19T13:13:06;18.60;38.50
67769;DHT22;54569;52.018;5.584;2023-04-19T13:15:32;18.60;33.90
67769;DHT22;54569;52.018;5.584;2023-04-19T13:17:58;18.60;33.90
67769;DHT22;54569;52.018;5.584;2023-04-19T13:20:24;18.50;41.20
67769;DHT22;54569;52.018;5.584;2023-04-19T13:22:49;18.60;37.30
67769;DHT22;54569;52.018;5.584;2023-04-19T13:25:15;18.40;43.30
67769;DHT22;54569;52.018;5.584;2023-04-19T13:27:41;18.40;39.40
67769;DHT22;54569;52.018;5.584;2023-04-19T13:30:07;18.40;37.50
67769;DHT22;54569;52.018;5.584;2023-04-19T13:32:33;18.30;37.80
67769;DHT22;54569;52.018;5.584;2023-04-19T13:34:58;18.30;36.90
67769;DHT22;54569;52.018;5.584;2023-04-19T13:37:25;18.30;34.30
67769;DHT22;54569;52.018;5.584;2023-04-19T13:39:50;18.30;34.30
67769;DHT22;54569;52.018;5.584;2023-04-19T13:42:17;18.20;34.30
67769;DHT22;54569;52.018;5.584;2023-04-19T13:44:43;18.20;34.40
67769;DHT22;54569;52.018;5.584;2023-04-19T13:47:09;18.10;34.10
67769;DHT22;54569;52.018;5.584;2023-04-19T13:49:34;18.00;34.30
67769;DHT22;54569;52.018;5.584;2023-04-19T13:52:00;18.00;34.30
67769;DHT22;54569;52.018;5.584;2023-04-19T13:54:26;18.10;34.10
67769;DHT22;54569;52.018;5.584;2023-04-19T13:56:51;18.10;34.20
67769;DHT22;54569;52.018;5.584;2023-04-19T13:59:17;18.10;34.10
67769;DHT22;54569;52.018;5.584;2023-04-19T14:01:43;18.10;34.40
67769;DHT22;54569;52.018;5.584;2023-04-19T14:04:08;18.20;34.50
67769;DHT22;54569;52.018;5.584;2023-04-19T14:06:34;18.20;34.50
67769;DHT22;54569;52.018;5.584;2023-04-19T14:09:00;18.20;34.40
67769;DHT22;54569;52.018;5.584;2023-04-19T14:11:26;18.20;34.00
67769;DHT22;54569;52.018;5.584;2023-04-19T14:13:52;18.20;33.90
67769;DHT22;54569;52.018;5.584;2023-04-19T14:16:18;18.20;33.70
67769;DHT22;54569;52.018;5.584;2023-04-19T14:18:45;18.10;33.70
67769;DHT22;54569;52.018;5.584;2023-04-19T14:21:10;18.10;33.50
67769;DHT22;54569;52.018;5.584;2023-04-19T14:23:36;18.00;33.80
67769;DHT22;54569;52.018;5.584;2023-04-19T14:26:02;18.00;33.60
67769;DHT22;54569;52.018;5.584;2023-04-19T14:28:27;17.80;33.40
67769;DHT22;54569;52.018;5.584;2023-04-19T14:30:53;17.70;34.50
67769;DHT22;54569;52.018;5.584;2023-04-19T14:33:19;17.70;34.10
67769;DHT22;54569;52.018;5.584;2023-04-19T14:35:44;17.70;34.00
67769;DHT22;54569;52.018;5.584;2023-04-19T14:38:10;17.70;34.00
67769;DHT22;54569;52.018;5.584;2023-04-19T14:40:36;17.60;34.10
67769;DHT22;54569;52.018;5.584;2023-04-19T14:43:01;17.60;34.30
67769;DHT22;54569;52.018;5.584;2023-04-19T14:45:27;17.60;34.60
67769;DHT22;54569;52.018;5.584;2023-04-19T14:47:53;17.60;34.60
67769;DHT22;54569;52.018;5.584;2023-04-19T14:50:18;17.60;35.60
67769;DHT22;54569;52.018;5.584;2023-04-19T14:52:45;17.50;34.50
67769;DHT22;54569;52.018;5.584;2023-04-19T14:55:24;17.40;34.80
67769;DHT22;54569;52.018;5.584;2023-04-19T14:57:52;17.30;34.20
67769;DHT22;54569;52.018;5.584;2023-04-19T15:00:18;17.30;35.00
67769;DHT22;54569;52.018;5.584;2023-04-19T15:02:43;17.20;35.50
67769;DHT22;54569;52.018;5.584;2023-04-19T15:05:09;17.20;35.60
67769;DHT22;54569;52.018;5.584;2023-04-19T15:07:35;17.10;35.90
67769;DHT22;54569;52.018;5.584;2023-04-19T15:10:00;17.10;35.40
67769;DHT22;54569;52.018;5.584;2023-04-19T15:12:26;17.00;35.80
67769;DHT22;54569;52.018;5.584;2023-04-19T15:14:52;17.00;35.90
67769;DHT22;54569;52.018;5.584;2023-04-19T15:17:18;17.10;35.90
67769;DHT22;54569;52.018;5.584;2023-04-19T15:19:43;17.20;35.90
67769;DHT22;54569;52.018;5.584;2023-04-19T15:22:11;17.10;36.00
67769;DHT22;54569;52.018;5.584;2023-04-19T15:24:37;17.10;36.20
67769;DHT22;54569;52.018;5.584;2023-04-19T15:27:02;17.10;36.00
67769;DHT22;54569;52.018;5.584;2023-04-19T15:29:28;17.00;36.10
67769;DHT22;54569;52.018;5.584;2023-04-19T15:31:56;17.10;36.10
67769;DHT22;54569;52.018;5.584;2023-04-19T15:34:22;17.00;36.00
67769;DHT22;54569;52.018;5.584;2023-04-19T15:36:49;17.00;36.40
67769;DHT22;54569;52.018;5.584;2023-04-19T15:39:16;16.90;36.70
67769;DHT22;54569;52.018;5.584;2023-04-19T15:41:42;16.90;36.60